sensor_id;sensor_type;location;lat;lon;timestamp;temperature;humidity
69208;SHT31;56321;47.662;8.878;2023-03-04T00:00:50;5.10;68.54
69208;SHT31;56321;47.662;8.878;2023-03-04T00:03:15;4.99;68.67
69208;SHT31;56321;47.662;8.878;2023-03-04T00:05:40;4.94;68.74
69208;SHT31;56321;47.662;8.878;2023-03-04T00:08:06;4.90;68.47
69208;SHT31;56321;47.662;8.878;2023-03-04T00:10:31;4.84;68.49
69208;SHT31;56321;47.662;8.878;2023-03-04T00:12:56;4.79;68.36
69208;SHT31;56321;47.662;8.878;2023-03-04T00:15:22;4.70;68.35
69208;SHT31;56321;47.662;8.878;2023-03-04T00:17:47;4.63;68.37
69208;SHT31;56321;47.662;8.878;2023-03-04T00:20:13;4.59;68.36
69208;SHT31;56321;47.662;8.878;2023-03-04T00:22:38;4.52;68.32
69208;SHT31;56321;47.662;8.878;2023-03-04T00:25:04;4.49;68.39
69208;SHT31;56321;47.662;8.878;2023-03-04T00:27:30;4.46;68.27
69208;SHT31;56321;47.662;8.878;2023-03-04T00:29:55;4.42;68.35
69208;SHT31;56321;47.662;8.878;2023-03-04T00:32:21;4.35;68.24
69208;SHT31;56321;47.662;8.878;2023-03-04T00:34:46;4.31;68.17
69208;SHT31;56321;47.662;8.878;2023-03-04T00:37:12;4.24;68.14
69208;SHT31;56321;47.662;8.878;2023-03-04T00:39:37;4.18;68.11
69208;SHT31;56321;47.662;8.878;2023-03-04T00:42:02;4.15;68.10
69208;SHT31;56321;47.662;8.878;2023-03-04T00:44:28;4.10;68.26
69208;SHT31;56321;47.662;8.878;2023-03-04T00:46:53;4.05;68.24
69208;SHT31;56321;47.662;8.878;2023-03-04T00:49:18;4.00;68.30
69208;SHT31;56321;47.662;8.878;2023-03-04T00:51:44;3.98;68.24
69208;SHT31;56321;47.662;8.878;2023-03-04T00:54:09;3.94;68.23
69208;SHT31;56321;47.662;8.878;2023-03-04T00:56:34;3.94;68.26
69208;SHT31;56321;47.662;8.878;2023-03-04T00:59:00;3.89;68.10
69208;SHT31;56321;47.662;8.878;2023-03-04T01:01:25;3.84;68.19
69208;SHT31;56321;47.662;8.878;2023-03-04T01:03:51;3.80;68.35
69208;SHT31;56321;47.662;8.878;2023-03-04T01:06:16;3.79;68.36
69208;SHT31;56321;47.662;8.878;2023-03-04T01:08:42;3.77;68.29
69208;SHT31;56321;47.662;8.878;2023-03-04T01:11:07;3.74;68.27
69208;SHT31;56321;47.662;8.878;2023-03-04T01:13:33;3.70;68.26
69208;SHT31;56321;47.662;8.878;2023-03-04T01:15:58;3.67;68.34
69208;SHT31;56321;47.662;8.878;2023-03-04T01:18:24;3.66;68.41
69208;SHT31;56321;47.662;8.878;2023-03-04T01:20:49;3.65;68.41
69208;SHT31;56321;47.662;8.878;2023-03-04T01:23:15;3.60;68.34
69208;SHT31;56321;47.662;8.878;2023-03-04T01:25:40;3.59;68.44
69208;SHT31;56321;47.662;8.878;2023-03-04T01:28:05;3.55;68.44
69208;SHT31;56321;47.662;8.878;2023-03-04T01:30:31;3.53;68.52
69208;SHT31;56321;47.662;8.878;2023-03-04T01:32:56;3.51;68.65
69208;SHT31;56321;47.662;8.878;2023-03-04T01:35:21;3.52;68.61
69208;SHT31;56321;47.662;8.878;2023-03-04T01:37:47;3.48;68.50
69208;SHT31;56321;47.662;8.878;2023-03-04T01:40:13;3.43;68.54
69208;SHT31;56321;47.662;8.878;2023-03-04T01:42:38;3.43;68.48
69208;SHT31;56321;47.662;8.878;2023-03-04T01:45:05;3.39;68.68
69208;SHT31;56321;47.662;8.878;2023-03-04T01:47:32;3.39;68.71
69208;SHT31;56321;47.662;8.878;2023-03-04T01:50:00;3.35;68.78
69208;SHT31;56321;47.662;8.878;2023-03-04T01:52:27;3.32;68.77
69208;SHT31;56321;47.662;8.878;2023-03-04T01:54:52;3.32;68.82
69208;SHT31;56321;47.662;8.878;2023-03-04T01:57:20;3.26;68.86
69208;SHT31;56321;47.662;8.878;2023-03-04T01:59:46;3.22;68.91
69208;SHT31;56321;47.662;8.878;2023-03-04T02:02:12;3.22;68.84
69208;SHT31;56321;47.662;8.878;2023-03-04T02:04:38;3.18;68.80
69208;SHT31;56321;47.662;8.878;2023-03-04T02:07:05;3.15;68.80
69208;SHT31;56321;47.662;8.878;2023-03-04T02:09:31;3.15;68.90
69208;SHT31;56321;47.662;8.878;2023-03-04T02:11:57;3.11;68.87
69208;SHT31;56321;47.662;8.878;2023-03-04T02:14:23;3.08;69.01
69208;SHT31;56321;47.662;8.878;2023-03-04T02:16:49;3.08;69.06
69208;SHT31;56321;47.662;8.878;2023-03-04T02:19:34;3.04;69.15
69208;SHT31;56321;47.662;8.878;2023-03-04T02:22:02;3.04;69.09
69208;SHT31;56321;47.662;8.878;2023-03-04T02:24:48;3.00;69.19
69208;SHT31;56321;47.662;8.878;2023-03-04T02:27:14;3.01;69.10
69208;SHT31;56321;47.662;8.878;2023-03-04T02:29:39;3.01;69.05
69208;SHT31;56321;47.662;8.878;2023-03-04T02:32:05;2.97;68.96
69208;SHT31;56321;47.662;8.878;2023-03-04T02:34:32;2.98;68.87
69208;SHT31;56321;47.662;8.878;2023-03-04T02:37:00;2.94;68.98
69208;SHT31;56321;47.662;8.878;2023-03-04T02:39:43;2.90;69.07
69208;SHT31;56321;47.662;8.878;2023-03-04T02:42:09;2.90;68.99
69208;SHT31;56321;47.662;8.878;2023-03-04T02:44:37;2.86;69.01
69208;SHT31;56321;47.662;8.878;2023-03-04T02:47:05;2.83;68.98
69208;SHT31;56321;47.662;8.878;2023-03-04T02:49:32;2.81;69.00
69208;SHT31;56321;47.662;8.878;2023-03-04T02:52:06;2.80;69.03
69208;SHT31;56321;47.662;8.878;2023-03-04T02:54:33;2.77;69.00
69208;SHT31;56321;47.662;8.878;2023-03-04T02:57:00;2.76;69.08
69208;SHT31;56321;47.662;8.878;2023-03-04T02:59:26;2.72;69.19
69208;SHT31;56321;47.662;8.878;2023-03-04T03:01:52;2.73;69.21
69208;SHT31;56321;47.662;8.878;2023-03-04T03:04:19;2.69;69.14
69208;SHT31;56321;47.662;8.878;2023-03-04T03:06:45;2.64;69.23
69208;SHT31;56321;47.662;8.878;2023-03-04T03:09:11;2.64;69.22
69208;SHT31;56321;47.662;8.878;2023-03-04T03:11:37;2.64;69.31
69208;SHT31;56321;47.662;8.878;2023-03-04T03:14:02;2.63;69.33
69208;SHT31;56321;47.662;8.878;2023-03-04T03:16:28;2.63;69.25
69208;SHT31;56321;47.662;8.878;2023-03-04T03:18:53;2.57;69.29
69208;SHT31;56321;47.662;8.878;2023-03-04T03:21:18;2.57;69.40
69208;SHT31;56321;47.662;8.878;2023-03-04T03:23:44;2.54;69.33
69208;SHT31;56321;47.662;8.878;2023-03-04T03:26:09;2.54;69.29
69208;SHT31;56321;47.662;8.878;2023-03-04T03:28:34;2.54;69.28
69208;SHT31;56321;47.662;8.878;2023-03-04T03:31:00;2.52;69.32
69208;SHT31;56321;47.662;8.878;2023-03-04T03:33:25;2.50;69.37
69208;SHT31;56321;47.662;8.878;2023-03-04T03:35:51;2.49;69.29
69208;SHT31;56321;47.662;8.878;2023-03-04T03:38:16;2.48;69.29
69208;SHT31;56321;47.662;8.878;2023-03-04T03:40:41;2.45;69.45
69208;SHT31;56321;47.662;8.878;2023-03-04T03:43:07;2.45;69.49
69208;SHT31;56321;47.662;8.878;2023-03-04T03:45:32;2.40;69.54
69208;SHT31;56321;47.662;8.878;2023-03-04T03:47:57;2.40;69.59
69208;SHT31;56321;47.662;8.878;2023-03-04T03:50:23;2.43;69.56
69208;SHT31;56321;47.662;8.878;2023-03-04T03:52:48;2.42;69.65
69208;SHT31;56321;47.662;8.878;2023-03-04T03:55:13;2.42;69.70
69208;SHT31;56321;47.662;8.878;2023-03-04T03:57:39;2.40;69.62
69208;SHT31;56321;47.662;8.878;2023-03-04T04:00:05;2.40;69.48
69208;SHT31;56321;47.662;8.878;2023-03-04T04:02:31;2.38;69.46
69208;SHT31;56321;47.662;8.878;2023-03-04T04:04:56;2.36;69.40
69208;SHT31;56321;47.662;8.878;2023-03-04T04:07:21;2.38;69.42
69208;SHT31;56321;47.662;8.878;2023-03-04T04:09:47;2.35;69.41
69208;SHT31;56321;47.662;8.878;2023-03-04T04:12:13;2.31;69.37
69208;SHT31;56321;47.662;8.878;2023-03-04T04:14:39;2.29;69.40
69208;SHT31;56321;47.662;8.878;2023-03-04T04:17:05;2.24;69.39
69208;SHT31;56321;47.662;8.878;2023-03-04T04:19:30;2.22;69.37
69208;SHT31;56321;47.662;8.878;2023-03-04T04:21:55;2.21;69.53
69208;SHT31;56321;47.662;8.878;2023-03-04T04:24:21;2.21;69.66
69208;SHT31;56321;47.662;8.878;2023-03-04T04:26:47;2.22;69.66
69208;SHT31;56321;47.662;8.878;2023-03-04T04:29:13;2.17;69.57
69208;SHT31;56321;47.662;8.878;2023-03-04T04:31:39;2.17;69.58
69208;SHT31;56321;47.662;8.878;2023-03-04T04:34:04;2.15;69.64
69208;SHT31;56321;47.662;8.878;2023-03-04T04:36:30;2.14;69.68
69208;SHT31;56321;47.662;8.878;2023-03-04T04:38:55;2.11;69.64
69208;SHT31;56321;47.662;8.878;2023-03-04T04:41:24;2.10;69.60
69208;SHT31;56321;47.662;8.878;2023-03-04T04:43:50;2.07;69.56
69208;SHT31;56321;47.662;8.878;2023-03-04T04:46:16;2.05;69.48
69208;SHT31;56321;47.662;8.878;2023-03-04T04:48:42;2.02;69.58
69208;SHT31;56321;47.662;8.878;2023-03-04T04:51:08;2.04;69.59
69208;SHT31;56321;47.662;8.878;2023-03-04T04:53:34;2.00;69.60
69208;SHT31;56321;47.662;8.878;2023-03-04T04:55:59;2.00;69.57
69208;SHT31;56321;47.662;8.878;2023-03-04T04:58:24;1.98;69.63
69208;SHT31;56321;47.662;8.878;2023-03-04T05:00:50;1.98;69.64
69208;SHT31;56321;47.662;8.878;2023-03-04T05:03:15;1.94;69.62
69208;SHT31;56321;47.662;8.878;2023-03-04T05:05:41;1.95;69.55
69208;SHT31;56321;47.662;8.878;2023-03-04T05:08:06;1.95;69.53
69208;SHT31;56321;47.662;8.878;2023-03-04T05:10:31;1.95;69.43
69208;SHT31;56321;47.662;8.878;2023-03-04T05:12:57;1.94;69.43
69208;SHT31;56321;47.662;8.878;2023-03-04T05:15:22;1.93;69.50
69208;SHT31;56321;47.662;8.878;2023-03-04T05:17:47;1.91;69.58
69208;SHT31;56321;47.662;8.878;2023-03-04T05:20:13;1.87;69.65
69208;SHT31;56321;47.662;8.878;2023-03-04T05:22:38;1.85;69.67
69208;SHT31;56321;47.662;8.878;2023-03-04T05:25:04;1.84;69.64
69208;SHT31;56321;47.662;8.878;2023-03-04T05:27:29;1.83;69.75
69208;SHT31;56321;47.662;8.878;2023-03-04T05:29:54;1.84;69.77
69208;SHT31;56321;47.662;8.878;2023-03-04T05:32:23;1.81;69.82
69208;SHT31;56321;47.662;8.878;2023-03-04T05:34:49;1.78;69.81
69208;SHT31;56321;47.662;8.878;2023-03-04T05:37:14;1.77;69.84
69208;SHT31;56321;47.662;8.878;2023-03-04T05:39:39;1.75;69.92
69208;SHT31;56321;47.662;8.878;2023-03-04T05:42:05;1.77;70.02
69208;SHT31;56321;47.662;8.878;2023-03-04T05:44:30;1.78;70.10
69208;SHT31;56321;47.662;8.878;2023-03-04T05:46:55;1.77;70.01
69208;SHT31;56321;47.662;8.878;2023-03-04T05:49:21;1.73;70.11
69208;SHT31;56321;47.662;8.878;2023-03-04T05:51:46;1.73;70.10
69208;SHT31;56321;47.662;8.878;2023-03-04T05:54:11;1.73;70.00
69208;SHT31;56321;47.662;8.878;2023-03-04T05:56:37;1.74;70.03
69208;SHT31;56321;47.662;8.878;2023-03-04T05:59:02;1.71;69.97
69208;SHT31;56321;47.662;8.878;2023-03-04T06:01:27;1.68;69.87
69208;SHT31;56321;47.662;8.878;2023-03-04T06:03:54;1.66;69.93
69208;SHT31;56321;47.662;8.878;2023-03-04T06:06:19;1.70;69.82
69208;SHT31;56321;47.662;8.878;2023-03-04T06:08:45;1.67;69.82
69208;SHT31;56321;47.662;8.878;2023-03-04T06:11:10;1.63;69.82
69208;SHT31;56321;47.662;8.878;2023-03-04T06:13:35;1.63;69.87
69208;SHT31;56321;47.662;8.878;2023-03-04T06:16:02;1.63;69.81
69208;SHT31;56321;47.662;8.878;2023-03-04T06:18:28;1.63;69.84
69208;SHT31;56321;47.662;8.878;2023-03-04T06:20:58;1.62;69.82
69208;SHT31;56321;47.662;8.878;2023-03-04T06:23:25;1.62;69.93
69208;SHT31;56321;47.662;8.878;2023-03-04T06:25:54;1.62;69.91
69208;SHT31;56321;47.662;8.878;2023-03-04T06:28:21;1.64;69.87
69208;SHT31;56321;47.662;8.878;2023-03-04T06:30:47;1.64;69.80
69208;SHT31;56321;47.662;8.878;2023-03-04T06:33:12;1.68;69.81
69208;SHT31;56321;47.662;8.878;2023-03-04T06:35:37;1.64;69.77
69208;SHT31;56321;47.662;8.878;2023-03-04T06:38:03;1.68;69.88
69208;SHT31;56321;47.662;8.878;2023-03-04T06:40:28;1.67;70.04
69208;SHT31;56321;47.662;8.878;2023-03-04T06:42:53;1.68;70.13
69208;SHT31;56321;47.662;8.878;2023-03-04T06:45:19;1.70;70.15
69208;SHT31;56321;47.662;8.878;2023-03-04T06:47:44;1.71;69.94
69208;SHT31;56321;47.662;8.878;2023-03-04T06:50:11;1.74;69.95
69208;SHT31;56321;47.662;8.878;2023-03-04T06:52:37;1.78;70.01
69208;SHT31;56321;47.662;8.878;2023-03-04T06:55:03;1.81;69.99
69208;SHT31;56321;47.662;8.878;2023-03-04T06:57:29;1.87;69.87
69208;SHT31;56321;47.662;8.878;2023-03-04T06:59:54;1.91;70.01
69208;SHT31;56321;47.662;8.878;2023-03-04T07:02:20;1.97;69.99
69208;SHT31;56321;47.662;8.878;2023-03-04T07:04:45;2.00;69.92
69208;SHT31;56321;47.662;8.878;2023-03-04T07:07:11;2.02;69.97
69208;SHT31;56321;47.662;8.878;2023-03-04T07:09:36;2.07;70.04
69208;SHT31;56321;47.662;8.878;2023-03-04T07:12:03;2.15;70.07
69208;SHT31;56321;47.662;8.878;2023-03-04T07:14:28;2.21;70.07
69208;SHT31;56321;47.662;8.878;2023-03-04T07:16:54;2.26;70.07
69208;SHT31;56321;47.662;8.878;2023-03-04T07:19:19;2.33;70.05
69208;SHT31;56321;47.662;8.878;2023-03-04T07:21:44;2.42;70.03
69208;SHT31;56321;47.662;8.878;2023-03-04T07:24:10;2.50;69.99
69208;SHT31;56321;47.662;8.878;2023-03-04T07:26:36;2.60;69.87
69208;SHT31;56321;47.662;8.878;2023-03-04T07:29:02;2.69;69.84
69208;SHT31;56321;47.662;8.878;2023-03-04T07:31:30;2.84;69.81
69208;SHT31;56321;47.662;8.878;2023-03-04T07:33:58;2.94;69.69
69208;SHT31;56321;47.662;8.878;2023-03-04T07:36:24;3.01;69.77
69208;SHT31;56321;47.662;8.878;2023-03-04T07:38:50;3.14;69.87
69208;SHT31;56321;47.662;8.878;2023-03-04T07:41:16;3.19;69.90
69208;SHT31;56321;47.662;8.878;2023-03-04T07:43:42;3.32;69.94
69208;SHT31;56321;47.662;8.878;2023-03-04T07:46:09;3.42;69.88
69208;SHT31;56321;47.662;8.878;2023-03-04T07:48:34;3.56;69.85
69208;SHT31;56321;47.662;8.878;2023-03-04T07:53:30;3.84;69.59
69208;SHT31;56321;47.662;8.878;2023-03-04T07:55:56;3.94;69.40
69208;SHT31;56321;47.662;8.878;2023-03-04T07:58:21;4.11;69.15
69208;SHT31;56321;47.662;8.878;2023-03-04T08:00:47;4.25;69.00
69208;SHT31;56321;47.662;8.878;2023-03-04T08:03:12;4.41;68.87
69208;SHT31;56321;47.662;8.878;2023-03-04T08:05:40;4.59;68.64
69208;SHT31;56321;47.662;8.878;2023-03-04T08:08:06;4.81;68.44
69208;SHT31;56321;47.662;8.878;2023-03-04T08:10:31;5.04;68.13
69208;SHT31;56321;47.662;8.878;2023-03-04T08:12:56;5.51;67.64
69208;SHT31;56321;47.662;8.878;2023-03-04T08:15:22;6.06;67.14
69208;SHT31;56321;47.662;8.878;2023-03-04T08:17:49;6.64;66.01
69208;SHT31;56321;47.662;8.878;2023-03-04T08:20:14;7.19;65.11
69208;SHT31;56321;47.662;8.878;2023-03-04T08:22:39;7.64;63.85
69208;SHT31;56321;47.662;8.878;2023-03-04T08:25:05;8.06;63.00
69208;SHT31;56321;47.662;8.878;2023-03-04T08:27:30;8.47;62.10
69208;SHT31;56321;47.662;8.878;2023-03-04T08:29:56;8.78;61.15
69208;SHT31;56321;47.662;8.878;2023-03-04T08:32:21;9.12;60.50
69208;SHT31;56321;47.662;8.878;2023-03-04T08:34:46;9.46;60.11
69208;SHT31;56321;47.662;8.878;2023-03-04T08:37:12;9.79;58.98
69208;SHT31;56321;47.662;8.878;2023-03-04T08:39:37;10.09;58.47
69208;SHT31;56321;47.662;8.878;2023-03-04T08:42:02;10.42;57.74
69208;SHT31;56321;47.662;8.878;2023-03-04T08:44:28;10.74;57.31
69208;SHT31;56321;47.662;8.878;2023-03-04T08:46:53;11.08;56.61
69208;SHT31;56321;47.662;8.878;2023-03-04T08:49:18;11.44;55.52
69208;SHT31;56321;47.662;8.878;2023-03-04T08:51:44;11.81;55.20
69208;SHT31;56321;47.662;8.878;2023-03-04T08:54:10;12.20;54.12
69208;SHT31;56321;47.662;8.878;2023-03-04T08:56:35;12.49;53.58
69208;SHT31;56321;47.662;8.878;2023-03-04T08:59:01;12.77;52.79
69208;SHT31;56321;47.662;8.878;2023-03-04T09:01:26;12.96;52.31
69208;SHT31;56321;47.662;8.878;2023-03-04T09:03:51;13.23;51.32
69208;SHT31;56321;47.662;8.878;2023-03-04T09:06:17;13.47;50.44
69208;SHT31;56321;47.662;8.878;2023-03-04T09:08:43;13.72;49.92
69208;SHT31;56321;47.662;8.878;2023-03-04T09:11:09;14.03;49.62
69208;SHT31;56321;47.662;8.878;2023-03-04T09:13:35;14.36;48.53
69208;SHT31;56321;47.662;8.878;2023-03-04T09:16:01;14.69;47.78
69208;SHT31;56321;47.662;8.878;2023-03-04T09:18:27;14.95;47.04
69208;SHT31;56321;47.662;8.878;2023-03-04T09:20:53;15.19;46.43
69208;SHT31;56321;47.662;8.878;2023-03-04T09:23:18;15.49;46.29
69208;SHT31;56321;47.662;8.878;2023-03-04T09:25:45;15.78;45.64
69208;SHT31;56321;47.662;8.878;2023-03-04T09:28:12;16.13;45.07
69208;SHT31;56321;47.662;8.878;2023-03-04T09:30:38;16.49;44.13
69208;SHT31;56321;47.662;8.878;2023-03-04T09:33:03;16.84;44.04
69208;SHT31;56321;47.662;8.878;2023-03-04T09:35:29;17.19;43.50
69208;SHT31;56321;47.662;8.878;2023-03-04T09:37:55;17.47;42.48
69208;SHT31;56321;47.662;8.878;2023-03-04T09:40:23;17.79;41.52
69208;SHT31;56321;47.662;8.878;2023-03-04T09:42:53;18.12;40.90
69208;SHT31;56321;47.662;8.878;2023-03-04T09:45:21;18.42;40.22
69208;SHT31;56321;47.662;8.878;2023-03-04T09:47:50;18.73;39.77
69208;SHT31;56321;47.662;8.878;2023-03-04T09:50:18;18.99;39.19
69208;SHT31;56321;47.662;8.878;2023-03-04T09:55:26;19.39;35.79
69208;SHT31;56321;47.662;8.878;2023-03-04T09:57:56;19.62;37.59
69208;SHT31;56321;47.662;8.878;2023-03-04T10:08:24;20.41;35.11
69208;SHT31;56321;47.662;8.878;2023-03-04T10:10:53;20.54;35.53
69208;SHT31;56321;47.662;8.878;2023-03-04T10:14:00;20.68;32.69
69208;SHT31;56321;47.662;8.878;2023-03-04T10:16:36;21.06;34.04
69208;SHT31;56321;47.662;8.878;2023-03-04T10:21:50;21.54;34.57
69208;SHT31;56321;47.662;8.878;2023-03-04T10:24:20;21.78;33.50
69208;SHT31;56321;47.662;8.878;2023-03-04T10:26:52;21.99;33.26
69208;SHT31;56321;47.662;8.878;2023-03-04T10:29:21;22.16;32.91
69208;SHT31;56321;47.662;8.878;2023-03-04T10:31:48;22.36;32.78
69208;SHT31;56321;47.662;8.878;2023-03-04T10:34:15;22.52;32.35
69208;SHT31;56321;47.662;8.878;2023-03-04T10:37:02;22.61;30.14
69208;SHT31;56321;47.662;8.878;2023-03-04T10:39:33;22.84;32.08
69208;SHT31;56321;47.662;8.878;2023-03-04T10:42:02;23.00;31.56
69208;SHT31;56321;47.662;8.878;2023-03-04T10:44:29;23.21;31.26
69208;SHT31;56321;47.662;8.878;2023-03-04T10:46:56;23.48;30.96
69208;SHT31;56321;47.662;8.878;2023-03-04T10:49:23;23.81;30.39
69208;SHT31;56321;47.662;8.878;2023-03-04T10:51:53;23.88;29.89
69208;SHT31;56321;47.662;8.878;2023-03-04T10:54:30;23.98;29.18
69208;SHT31;56321;47.662;8.878;2023-03-04T10:57:03;24.24;29.70
69208;SHT31;56321;47.662;8.878;2023-03-04T11:02:15;24.54;28.62
69208;SHT31;56321;47.662;8.878;2023-03-04T11:04:40;24.62;28.97
69208;SHT31;56321;47.662;8.878;2023-03-04T11:07:09;24.68;28.17
69208;SHT31;56321;47.662;8.878;2023-03-04T11:09:35;24.75;28.46
69208;SHT31;56321;47.662;8.878;2023-03-04T11:12:03;24.84;28.17
69208;SHT31;56321;47.662;8.878;2023-03-04T11:14:36;25.07;27.84
69208;SHT31;56321;47.662;8.878;2023-03-04T11:17:24;25.23;25.51
69208;SHT31;56321;47.662;8.878;2023-03-04T11:19:57;25.42;27.03
69208;SHT31;56321;47.662;8.878;2023-03-04T11:22:27;25.51;27.03
69208;SHT31;56321;47.662;8.878;2023-03-04T11:24:57;25.74;27.31
69208;SHT31;56321;47.662;8.878;2023-03-04T11:27:35;26.03;26.63
69208;SHT31;56321;47.662;8.878;2023-03-04T11:30:15;26.17;25.44
69208;SHT31;56321;47.662;8.878;2023-03-04T11:32:46;26.27;26.80
69208;SHT31;56321;47.662;8.878;2023-03-04T11:35:33;26.15;25.94
69208;SHT31;56321;47.662;8.878;2023-03-04T11:38:12;26.05;26.72
69208;SHT31;56321;47.662;8.878;2023-03-04T11:40:44;26.03;26.36
69208;SHT31;56321;47.662;8.878;2023-03-04T11:43:17;25.99;27.24
69208;SHT31;56321;47.662;8.878;2023-03-04T11:45:58;25.93;25.98
69208;SHT31;56321;47.662;8.878;2023-03-04T11:48:55;25.95;25.48
69208;SHT31;56321;47.662;8.878;2023-03-04T11:57:05;26.10;25.70
69208;SHT31;56321;47.662;8.878;2023-03-04T11:59:39;26.34;26.14
69208;SHT31;56321;47.662;8.878;2023-03-04T12:02:10;26.53;26.52
69208;SHT31;56321;47.662;8.878;2023-03-04T12:15:39;25.76;25.20
69208;SHT31;56321;47.662;8.878;2023-03-04T12:26:35;23.10;28.52
69208;SHT31;56321;47.662;8.878;2023-03-04T12:37:45;21.30;29.83
69208;SHT31;56321;47.662;8.878;2023-03-04T12:43:25;20.27;31.64
69208;SHT31;56321;47.662;8.878;2023-03-04T12:48:59;19.44;32.82
69208;SHT31;56321;47.662;8.878;2023-03-04T12:54:24;18.89;33.70
69208;SHT31;56321;47.662;8.878;2023-03-04T12:57:01;18.56;34.41
69208;SHT31;56321;47.662;8.878;2023-03-04T12:59:32;18.32;34.53
69208;SHT31;56321;47.662;8.878;2023-03-04T13:02:44;18.00;34.62
69208;SHT31;56321;47.662;8.878;2023-03-04T13:05:00;17.62;34.82
69208;SHT31;56321;47.662;8.878;2023-03-04T13:10:13;16.96;36.06
69208;SHT31;56321;47.662;8.878;2023-03-04T13:12:55;16.71;36.18
69208;SHT31;56321;47.662;8.878;2023-03-04T13:17:49;16.49;36.91
69208;SHT31;56321;47.662;8.878;2023-03-04T13:23:17;16.29;36.62
69208;SHT31;56321;47.662;8.878;2023-03-04T13:25:47;16.09;36.82
69208;SHT31;56321;47.662;8.878;2023-03-04T13:28:35;15.81;37.67
69208;SHT31;56321;47.662;8.878;2023-03-04T13:36:02;15.49;38.01
69208;SHT31;56321;47.662;8.878;2023-03-04T13:43:42;15.27;38.39
69208;SHT31;56321;47.662;8.878;2023-03-04T13:48:57;15.16;38.90
69208;SHT31;56321;47.662;8.878;2023-03-04T13:51:37;15.14;38.46
69208;SHT31;56321;47.662;8.878;2023-03-04T14:02:18;14.84;39.35
69208;SHT31;56321;47.662;8.878;2023-03-04T14:04:56;14.68;38.48
69208;SHT31;56321;47.662;8.878;2023-03-04T14:12:25;14.30;39.61
69208;SHT31;56321;47.662;8.878;2023-03-04T14:14:53;14.20;39.03
69208;SHT31;56321;47.662;8.878;2023-03-04T14:17:26;14.07;39.20
69208;SHT31;56321;47.662;8.878;2023-03-04T14:19:53;14.00;39.01
69208;SHT31;56321;47.662;8.878;2023-03-04T14:27:25;13.96;39.96
69208;SHT31;56321;47.662;8.878;2023-03-04T14:29:55;13.90;40.20
69208;SHT31;56321;47.662;8.878;2023-03-04T14:32:21;13.83;40.15
69208;SHT31;56321;47.662;8.878;2023-03-04T14:34:48;13.79;40.64
69208;SHT31;56321;47.662;8.878;2023-03-04T14:37:22;13.73;41.21
69208;SHT31;56321;47.662;8.878;2023-03-04T14:39:52;13.70;41.33
69208;SHT31;56321;47.662;8.878;2023-03-04T14:42:19;13.66;41.53
69208;SHT31;56321;47.662;8.878;2023-03-04T14:44:49;13.63;41.09
69208;SHT31;56321;47.662;8.878;2023-03-04T14:49:41;13.61;41.76
69208;SHT31;56321;47.662;8.878;2023-03-04T14:52:32;13.62;41.92
69208;SHT31;56321;47.662;8.878;2023-03-04T14:57:39;13.59;41.83
69208;SHT31;56321;47.662;8.878;2023-03-04T15:03:05;13.35;41.94
69208;SHT31;56321;47.662;8.878;2023-03-04T15:05:33;13.24;42.38
69208;SHT31;56321;47.662;8.878;2023-03-04T15:08:05;13.17;42.39
69208;SHT31;56321;47.662;8.878;2023-03-04T15:10:36;13.13;42.35
69208;SHT31;56321;47.662;8.878;2023-03-04T15:13:05;13.08;42.56
69208;SHT31;56321;47.662;8.878;2023-03-04T15:18:21;13.00;42.52
69208;SHT31;56321;47.662;8.878;2023-03-04T15:23:31;12.89;42.68
69208;SHT31;56321;47.662;8.878;2023-03-04T15:26:01;12.84;42.64
69208;SHT31;56321;47.662;8.878;2023-03-04T15:28:35;12.82;42.19
69208;SHT31;56321;47.662;8.878;2023-03-04T15:31:02;12.79;42.18
69208;SHT31;56321;47.662;8.878;2023-03-04T15:33:27;12.77;42.80
69208;SHT31;56321;47.662;8.878;2023-03-04T15:35:56;12.73;42.94
69208;SHT31;56321;47.662;8.878;2023-03-04T15:38:22;12.73;43.50
69208;SHT31;56321;47.662;8.878;2023-03-04T15:40:48;12.73;43.05
69208;SHT31;56321;47.662;8.878;2023-03-04T15:43:17;12.67;42.83
69208;SHT31;56321;47.662;8.878;2023-03-04T15:45:43;12.62;43.30
69208;SHT31;56321;47.662;8.878;2023-03-04T15:48:14;12.57;43.91
69208;SHT31;56321;47.662;8.878;2023-03-04T15:51:02;12.52;44.10
69208;SHT31;56321;47.662;8.878;2023-03-04T15:53:34;12.42;44.33
69208;SHT31;56321;47.662;8.878;2023-03-04T15:56:02;12.35;44.19
69208;SHT31;56321;47.662;8.878;2023-03-04T15:58:28;12.28;44.55
69208;SHT31;56321;47.662;8.878;2023-03-04T16:00:54;12.21;44.74
69208;SHT31;56321;47.662;8.878;2023-03-04T16:03:20;12.17;44.85
69208;SHT31;56321;47.662;8.878;2023-03-04T16:05:47;12.08;45.12
69208;SHT31;56321;47.662;8.878;2023-03-04T16:08:16;12.04;45.43
69208;SHT31;56321;47.662;8.878;2023-03-04T16:10:43;11.95;45.50
69208;SHT31;56321;47.662;8.878;2023-03-04T16:13:13;11.90;45.83
69208;SHT31;56321;47.662;8.878;2023-03-04T16:15:39;11.83;45.71
69208;SHT31;56321;47.662;8.878;2023-03-04T16:18:05;11.77;45.87
69208;SHT31;56321;47.662;8.878;2023-03-04T16:20:32;11.67;46.40
69208;SHT31;56321;47.662;8.878;2023-03-04T16:22:59;11.63;46.51
69208;SHT31;56321;47.662;8.878;2023-03-04T16:25:25;11.59;46.86
69208;SHT31;56321;47.662;8.878;2023-03-04T16:27:52;11.52;47.19
69208;SHT31;56321;47.662;8.878;2023-03-04T16:30:20;11.46;47.36
69208;SHT31;56321;47.662;8.878;2023-03-04T16:32:47;11.42;47.70
69208;SHT31;56321;47.662;8.878;2023-03-04T16:35:13;11.35;48.08
69208;SHT31;56321;47.662;8.878;2023-03-04T16:37:39;11.31;48.19
69208;SHT31;56321;47.662;8.878;2023-03-04T16:40:06;11.23;48.52
69208;SHT31;56321;47.662;8.878;2023-03-04T16:42:33;11.18;48.63
69208;SHT31;56321;47.662;8.878;2023-03-04T16:44:59;11.10;48.97
69208;SHT31;56321;47.662;8.878;2023-03-04T16:47:24;11.00;49.15
69208;SHT31;56321;47.662;8.878;2023-03-04T16:49:49;10.95;49.39
69208;SHT31;56321;47.662;8.878;2023-03-04T16:52:24;10.85;49.77
69208;SHT31;56321;47.662;8.878;2023-03-04T16:54:50;10.77;49.78
69208;SHT31;56321;47.662;8.878;2023-03-04T16:57:15;10.68;49.96
69208;SHT31;56321;47.662;8.878;2023-03-04T16:59:41;10.57;50.10
69208;SHT31;56321;47.662;8.878;2023-03-04T17:02:17;10.50;50.43
69208;SHT31;56321;47.662;8.878;2023-03-04T17:04:46;10.40;50.25
69208;SHT31;56321;47.662;8.878;2023-03-04T17:07:11;10.35;50.40
69208;SHT31;56321;47.662;8.878;2023-03-04T17:09:37;10.26;50.45
69208;SHT31;56321;47.662;8.878;2023-03-04T17:12:07;10.16;50.83
69208;SHT31;56321;47.662;8.878;2023-03-04T17:14:33;10.08;50.87
69208;SHT31;56321;47.662;8.878;2023-03-04T17:17:01;9.99;51.21
69208;SHT31;56321;47.662;8.878;2023-03-04T17:19:26;9.89;51.28
69208;SHT31;56321;47.662;8.878;2023-03-04T17:21:51;9.82;51.39
69208;SHT31;56321;47.662;8.878;2023-03-04T17:24:17;9.75;51.66
69208;SHT31;56321;47.662;8.878;2023-03-04T17:26:42;9.68;51.88
69208;SHT31;56321;47.662;8.878;2023-03-04T17:29:08;9.61;52.03
69208;SHT31;56321;47.662;8.878;2023-03-04T17:31:35;9.52;52.25
69208;SHT31;56321;47.662;8.878;2023-03-04T17:34:01;9.51;52.44
69208;SHT31;56321;47.662;8.878;2023-03-04T17:36:27;9.48;52.72